首页
METAR-TAF:

METAR-TAF

机场 :

Cerklje ob Krki, 斯洛文尼亚

纬度: 45-53-59N, 经度: 15-30-55E, 海拔: 157米

当前天气观测

该预报发布于23分钟前的10:00 UTC
风速2节,风向多变
温度 6°C
湿度 100%
气压 1015 hPa
能見度: 0300

METAR: LJCE 221000Z VRB02KT 0300 FG VV002 06/06 Q1015 RMK RED

时间: 11:23 (10:23 UTC)

预报

该预报发布于2小时和23分钟前的08:00 UTC
预报有效从22日的 09点(UTC)到 22日的 18点(UTC)
风速2节,风向多变
能見度: 0200
层高于200英尺
成为
从 22日的 09点(UTC)到 22日的 11点(UTC)
能見度: 2500
多云层高于300英尺
轻雾
成为
从 22日的 13点(UTC)到 22日的 15点(UTC)
能见度10公里或以上
多云层高于2500英尺
几率 30% :
短暂存在
从 22日的 15点(UTC)到 22日的 18点(UTC)
能見度: 7000
少量云层高于300英尺
多云层高于3500英尺, 塔状积云.
阵雨

TAF: LJCE 220800Z 2209/2218 VRB02KT 0200 FG VV002 BECMG 2209/2211 2500 BR BKN003 BECMG 2213/2215 9999 NSW BKN025 PROB30 TEMPO 2215/2218 7000 SHRA FEW003 BKN035TCU

超过4000个机场的气象观测和天气预报(METAR&TAF报告)。

可查询的气象台以黄色和红色小点在地图上表示。

将鼠标移到小点上方,可查看气象台名称。

然后点击查看天气观测和预报。

如需切换地图:点击带黑十字的绿色按钮放大地图;点击带横线的绿色按钮缩小地图;或者点击绿色箭头查看邻近地区的地图。


METAR-TAF: